Time;durP1;ratioP1;P1;durP2;ratioP2;P2;SDS_P1;SDS_P2;PMS_P1;PMS_P2;Temp;Humidity;BMP_temperature;BMP_pressure;BME280_temperature;BME280_humidity;BME280_pressure;Samples;Min_cycle;Max_cycle;Signal;HPM_P1;HPM_P2
2022/12/15 00:39:18;;;;;;;28.77;17.88;;;;;;;-1.55;61.10;98888.78;10373852;28;20856;-86
2022/12/15 00:44:22;;;;;;;30.77;18.27;;;;;;;-1.48;60.96;98892.03;10358314;28;20060;-86
2022/12/15 01:21:44;;;;;;;33.00;20.17;;;;;;;-1.62;61.48;98927.47;10369774;28;20483;-85
2022/12/15 01:26:45;;;;;;;28.85;18.67;;;;;;;-1.58;61.22;98940.16;10353460;28;20062;-86
2022/12/15 01:31:47;;;;;;;28.05;17.92;;;;;;;-1.73;61.38;98949.97;10354162;28;20050;-86
2022/12/15 01:37:03;;;;;;;29.35;18.52;;;;;;;-1.74;61.36;98948.31;10357089;28;20095;-86
2022/12/15 01:42:05;;;;;;;28.02;18.42;;;;;;;-1.80;61.64;98951.88;10352231;28;20129;-86
2022/12/15 01:47:12;;;;;;;29.77;18.75;;;;;;;-1.71;61.30;98948.19;10355475;28;20806;-86
2022/12/15 01:52:17;;;;;;;29.33;19.17;;;;;;;-1.75;61.39;98952.56;10374682;28;20168;-86
2022/12/15 01:57:27;;;;;;;29.33;19.35;;;;;;;-1.79;61.75;98963.78;10360267;28;20450;-86
2022/12/15 02:02:32;;;;;;;31.05;19.42;;;;;;;-1.68;61.45;98972.06;10365316;28;20838;-86
2022/12/15 02:07:41;;;;;;;31.67;19.73;;;;;;;-1.66;61.35;98977.13;10381074;28;20064;-86
2022/12/15 02:13:10;;;;;;;30.73;19.13;;;;;;;-1.74;61.38;98989.31;10364343;28;20089;-86
2022/12/15 02:18:28;;;;;;;31.48;20.60;;;;;;;-1.71;61.27;98984.94;10362586;28;20089;-86
2022/12/15 02:23:40;;;;;;;28.92;18.58;;;;;;;-1.76;61.43;98998.75;10361941;28;20401;-86
2022/12/15 02:29:05;;;;;;;29.15;17.60;;;;;;;-1.99;61.41;99001.88;10361077;28;20483;-86
2022/12/15 02:34:23;;;;;;;28.70;18.27;;;;;;;-1.97;61.55;98997.56;10378148;28;20143;-86
2022/12/15 02:39:25;;;;;;;29.65;19.65;;;;;;;-2.01;61.51;98990.81;10378910;28;20057;-86
2022/12/15 02:44:42;;;;;;;26.88;18.67;;;;;;;-1.93;61.74;98998.31;10360381;28;20450;-86
2022/12/15 02:50:02;;;;;;;30.10;20.20;;;;;;;-1.91;61.62;98996.56;10376472;28;20061;-85
2022/12/15 02:55:33;;;;;;;30.43;19.87;;;;;;;-1.95;61.37;99013.75;10357425;28;20046;-85
2022/12/15 03:00:44;;;;;;;35.03;19.80;;;;;;;-1.89;61.71;99013.59;10368894;28;20503;-85
2022/12/15 03:05:53;;;;;;;28.17;19.08;;;;;;;-1.91;61.58;99022.19;10379151;28;20423;-85
2022/12/15 03:10:56;;;;;;;30.15;18.65;;;;;;;-1.91;61.31;99027.31;10383943;28;20569;-84
2022/12/15 03:16:00;;;;;;;27.02;17.98;;;;;;;-1.89;61.52;99022.97;10383421;28;20506;-85
2022/12/15 03:21:05;;;;;;;25.42;16.85;;;;;;;-1.95;61.50;99025.69;10382842;28;20061;-85
2022/12/15 03:26:07;;;;;;;29.65;17.73;;;;;;;-2.02;61.49;99033.53;10363723;28;20089;-86
2022/12/15 03:31:09;;;;;;;25.05;17.23;;;;;;;-2.15;61.71;99033.88;10364470;28;20742;-86
2022/12/15 03:36:12;;;;;;;29.67;18.10;;;;;;;-2.18;61.48;99039.88;10366312;28;20049;-86
2022/12/15 03:41:13;;;;;;;31.67;17.95;;;;;;;-2.16;61.74;99038.13;10370682;28;20058;-87
2022/12/15 03:46:15;;;;;;;27.42;18.45;;;;;;;-2.18;61.84;99039.88;10363559;28;20853;-86
2022/12/15 03:51:18;;;;;;;29.20;18.20;;;;;;;-2.18;61.80;99032.22;10379938;28;20494;-85
2022/12/15 03:56:19;;;;;;;30.98;18.60;;;;;;;-2.30;61.87;99045.28;10364106;28;20053;-85
2022/12/15 04:01:33;;;;;;;26.20;17.02;;;;;;;-2.27;61.85;99046.94;10382544;28;20062;-85
2022/12/15 04:06:35;;;;;;;27.92;18.25;;;;;;;-2.24;61.98;99050.28;10356905;28;20049;-85
2022/12/15 04:11:36;;;;;;;31.17;18.73;;;;;;;-2.13;61.75;99058.56;10373322;28;20061;-84
2022/12/15 04:16:38;;;;;;;30.75;19.73;;;;;;;-2.16;61.70;99063.75;10355974;28;20050;-85
2022/12/15 04:21:40;;;;;;;31.27;19.98;;;;;;;-2.20;61.90;99062.13;10356857;28;20056;-86
2022/12/15 05:36:09;;;;;;;33.55;20.10;;;;;;;-2.41;62.15;99102.72;10380273;28;20049;-87
2022/12/15 05:41:11;;;;;;;34.17;20.52;;;;;;;-2.41;62.23;99110.41;10379573;28;20050;-87
2022/12/15 05:46:16;;;;;;;31.58;19.20;;;;;;;-2.51;61.96;99114.03;10365698;28;20060;-87
2022/12/15 05:51:17;;;;;;;28.83;18.75;;;;;;;-2.64;62.04;99125.38;10379694;28;20061;-86
2022/12/15 05:56:19;;;;;;;29.98;19.50;;;;;;;-2.49;61.94;99128.47;10362203;28;20057;-87
2022/12/15 06:01:21;;;;;;;31.65;19.98;;;;;;;-2.63;61.89;99122.78;10362062;28;20056;-85
2022/12/15 06:06:23;;;;;;;34.10;21.15;;;;;;;-2.50;62.06;99118.28;10362263;28;20411;-86
2022/12/15 06:11:25;;;;;;;30.02;18.98;;;;;;;-2.42;62.07;99124.06;10363368;28;20783;-86
2022/12/15 06:16:26;;;;;;;31.60;20.08;;;;;;;-2.41;62.07;99136.88;10379766;28;21066;-86
2022/12/15 06:21:34;;;;;;;32.00;20.30;;;;;;;-2.40;62.13;99141.09;10362298;28;20058;-86
2022/12/15 06:26:38;;;;;;;32.33;20.10;;;;;;;-2.40;61.89;99156.47;10379113;28;20077;-86
2022/12/15 06:31:42;;;;;;;31.67;19.55;;;;;;;-2.40;61.89;99163.28;10360658;28;20065;-85
2022/12/15 06:36:46;;;;;;;30.05;19.05;;;;;;;-2.49;61.90;99168.59;10361564;28;20054;-86
2022/12/15 06:41:48;;;;;;;29.58;19.10;;;;;;;-2.46;61.63;99184.75;10351375;28;20054;-86
2022/12/15 06:47:02;;;;;;;30.52;18.38;;;;;;;-2.70;61.78;99181.81;10353808;28;20054;-87
2022/12/15 06:52:06;;;;;;;33.67;20.00;;;;;;;-2.65;61.88;99173.16;10358569;28;20068;-86
2022/12/15 06:57:37;;;;;;;29.33;19.60;;;;;;;-2.51;61.79;99163.50;10357436;28;20058;-87
2022/12/15 07:02:41;;;;;;;28.98;19.77;;;;;;;-2.38;61.64;99167.50;10352570;28;20063;-89
2022/12/15 07:07:51;;;;;;;39.63;23.45;;;;;;;-2.38;61.53;99164.97;10377524;28;20058;-87
2022/12/15 07:12:57;;;;;;;33.60;20.20;;;;;;;-2.38;61.58;99169.22;10359051;28;20050;-87
2022/12/15 07:18:02;;;;;;;35.38;21.20;;;;;;;-2.35;61.58;99171.75;10375216;28;20062;-86
2022/12/15 07:23:12;;;;;;;31.25;20.85;;;;;;;-2.34;61.70;99184.50;10357837;28;20539;-86
2022/12/15 07:28:18;;;;;;;30.77;20.13;;;;;;;-2.36;61.13;99183.69;10373010;28;20061;-87
2022/12/15 07:33:26;;;;;;;35.83;22.05;;;;;;;-2.35;61.35;99184.53;10358575;28;20503;-88
2022/12/15 07:38:44;;;;;;;31.58;19.80;;;;;;;-2.53;61.04;99185.72;10375002;28;20430;-86
2022/12/15 07:43:52;;;;;;;32.35;21.63;;;;;;;-2.48;61.16;99188.19;10374251;28;20066;-87
2022/12/15 07:48:55;;;;;;;34.10;21.52;;;;;;;-2.40;61.46;99212.78;10375251;28;20060;-86
2022/12/15 07:54:02;;;;;;;39.88;22.55;;;;;;;-2.42;61.20;99217.09;10362790;28;20050;-88
2022/12/15 07:59:07;;;;;;;31.48;20.20;;;;;;;-2.67;61.48;99215.84;10367440;28;20430;-86
2022/12/15 08:04:10;;;;;;;29.50;19.80;;;;;;;-2.50;61.24;99218.97;10356043;28;20055;-87
2022/12/15 08:09:23;;;;;;;30.73;19.48;;;;;;;-2.44;60.83;99229.09;10347812;28;20057;-87
2022/12/15 08:14:30;;;;;;;33.15;20.77;;;;;;;-2.46;61.14;99227.41;10354379;28;20077;-88
2022/12/15 08:26:06;;;;;;;33.03;22.27;;;;;;;-2.17;60.27;99215.75;10372840;28;20050;-88
2022/12/15 08:31:17;;;;;;;32.05;21.75;;;;;;;-2.23;60.66;99222.72;10373693;28;20612;-87
2022/12/15 08:36:23;;;;;;;33.08;21.30;;;;;;;-2.34;60.13;99228.03;10370897;28;20050;-88
2022/12/15 08:41:32;;;;;;;33.33;21.60;;;;;;;-2.56;60.05;99239.56;10369806;28;20470;-87
2022/12/15 08:46:40;;;;;;;36.05;23.20;;;;;;;-2.40;60.65;99233.28;10352797;28;20183;-87
2022/12/15 08:51:42;;;;;;;35.28;22.92;;;;;;;-2.34;60.06;99228.03;10357212;28;20442;-88
2022/12/15 08:56:50;;;;;;;34.70;22.45;;;;;;;-2.11;60.39;99235.28;10367874;28;20449;-87
2022/12/15 09:02:04;;;;;;;35.10;22.67;;;;;;;-2.15;60.10;99238.78;10372750;28;20427;-87
2022/12/15 09:07:06;;;;;;;33.95;23.05;;;;;;;-2.06;59.94;99254.78;10355492;28;20128;-88
2022/12/15 09:12:12;;;;;;;34.88;23.42;;;;;;;-2.10;60.52;99253.16;10374610;28;20064;-86
2022/12/15 09:17:34;;;;;;;36.35;24.45;;;;;;;-1.72;60.00;99269.50;10325146;28;20058;-86
2022/12/15 09:22:36;;;;;;;34.58;23.65;;;;;;;-2.06;59.81;99275.28;10361210;28;20064;-87
2022/12/15 09:27:42;;;;;;;37.22;23.70;;;;;;;-2.24;60.07;99283.31;10374655;28;20104;-87
2022/12/15 09:32:55;;;;;;;48.97;31.95;;;;;;;-2.21;60.74;99287.56;10377295;28;20566;-85
2022/12/15 09:38:09;;;;;;;38.72;25.50;;;;;;;-1.95;59.89;99297.28;10348872;28;20148;-85
2022/12/15 09:43:51;;;;;;;36.75;24.15;;;;;;;-2.18;60.32;99310.53;10355928;28;20045;-86
2022/12/15 09:49:03;;;;;;;39.13;24.25;;;;;;;-2.04;60.21;99304.28;10358250;28;20069;-85
2022/12/15 09:54:09;;;;;;;41.38;24.65;;;;;;;-1.90;60.03;99311.72;10349987;28;20085;-85
2022/12/15 09:59:50;;;;;;;35.20;23.88;;;;;;;-1.94;59.17;99319.50;10355523;28;20080;-85
2022/12/15 10:05:42;;;;;;;246.73;157.50;;;;;;;-1.94;58.87;99322.91;10359267;28;20054;-85
2022/12/15 10:12:11;;;;;;;34.00;24.02;;;;;;;-1.89;59.12;99317.66;10354505;28;20054;-86
2022/12/15 10:17:52;;;;;;;34.70;23.30;;;;;;;-1.77;59.48;99318.28;10243061;28;20065;-85
2022/12/15 10:23:02;;;;;;;36.87;24.47;;;;;;;-1.44;58.83;99319.31;10367104;28;20522;-86
2022/12/15 10:28:23;;;;;;;34.53;23.17;;;;;;;-1.43;58.63;99313.31;10362197;28;20064;-86
2022/12/15 10:33:41;;;;;;;34.67;23.37;;;;;;;-1.43;58.11;99319.25;10370444;28;20545;-87
2022/12/15 10:38:50;;;;;;;37.45;24.80;;;;;;;-1.38;59.11;99317.47;10380603;28;20057;-86
2022/12/15 10:43:53;;;;;;;36.20;25.20;;;;;;;-1.21;58.22;99309.41;10366587;28;20057;-88
2022/12/15 10:49:05;;;;;;;37.47;25.30;;;;;;;-1.27;58.75;99309.53;10350022;28;20061;-87
2022/12/15 10:54:08;;;;;;;36.65;24.92;;;;;;;-1.29;58.61;99288.22;10370862;28;20140;-87
2022/12/15 10:59:34;;;;;;;36.35;24.02;;;;;;;-1.30;58.02;99297.63;10376210;28;20101;-88
2022/12/15 11:04:36;;;;;;;35.40;23.85;;;;;;;-1.74;58.86;99291.75;10362525;28;20052;-87
2022/12/15 11:09:38;;;;;;;32.15;21.63;;;;;;;-1.47;59.26;99292.00;10364731;28;20053;-87
2022/12/15 11:14:45;;;;;;;32.30;22.58;;;;;;;-1.26;58.92;99285.56;10365127;28;20057;-87
2022/12/15 11:20:06;;;;;;;28.88;20.73;;;;;;;-1.04;57.90;99281.63;10370571;28;20061;-89
2022/12/15 11:25:32;;;;;;;32.25;22.63;;;;;;;-1.08;58.09;99285.13;10356205;28;20056;-86
2022/12/15 11:30:51;;;;;;;40.58;26.83;;;;;;;-1.45;58.45;99289.44;10354456;28;20518;-88
2022/12/15 11:36:34;;;;;;;32.67;22.33;;;;;;;-1.49;57.79;99283.50;10357781;28;20049;-85
2022/12/15 11:42:20;;;;;;;31.92;22.63;;;;;;;-1.50;57.75;99263.88;10363645;28;20053;-88
2022/12/15 11:47:47;;;;;;;33.75;23.63;;;;;;;-1.57;58.48;99264.00;10300936;28;20069;-87
2022/12/15 11:53:29;;;;;;;34.95;24.33;;;;;;;-1.98;58.46;99247.78;10357662;28;20063;-87
2022/12/15 11:59:03;;;;;;;39.67;26.58;;;;;;;-1.76;58.51;99243.09;10352373;28;20444;-86
2022/12/15 12:04:25;;;;;;;41.33;27.00;;;;;;;-1.86;58.89;99236.47;10357803;28;20495;-87
2022/12/15 12:09:38;;;;;;;39.83;25.77;;;;;;;-1.61;59.04;99239.31;10356613;28;20053;-87
2022/12/15 12:14:56;;;;;;;42.17;27.30;;;;;;;-1.50;59.34;99233.09;10372402;28;20061;-86
2022/12/15 12:20:45;;;;;;;43.95;27.77;;;;;;;-1.53;58.28;99234.91;10360548;28;20069;-85
2022/12/15 12:26:36;;;;;;;46.17;26.83;;;;;;;-1.93;59.54;99237.47;10361377;28;20538;-85
2022/12/15 12:31:47;;;;;;;43.78;27.17;;;;;;;-1.62;59.48;99235.09;10354580;28;20533;-86
2022/12/15 12:36:53;;;;;;;40.28;27.77;;;;;;;-1.46;59.34;99236.44;10360338;28;20161;-86
2022/12/15 12:42:31;;;;;;;42.67;28.33;;;;;;;-1.64;59.27;99237.69;10353720;28;20093;-86
2022/12/15 12:47:39;;;;;;;43.90;29.00;;;;;;;-1.81;59.56;99223.53;10361007;28;20416;-86
2022/12/15 12:52:49;;;;;;;41.38;27.98;;;;;;;-1.70;59.13;99203.66;10352972;28;20099;-86
2022/12/15 12:57:52;;;;;;;44.90;28.13;;;;;;;-1.92;59.47;99203.28;10349969;28;20050;-86
2022/12/15 13:03:15;;;;;;;44.35;28.42;;;;;;;-1.95;59.55;99185.41;10369736;28;20490;-86
2022/12/15 13:08:26;;;;;;;43.08;28.33;;;;;;;-1.82;59.79;99176.59;10355924;28;20133;-86
2022/12/15 13:13:30;;;;;;;46.45;28.75;;;;;;;-1.72;59.96;99185.75;10373459;28;20053;-86
2022/12/15 13:18:55;;;;;;;38.97;26.10;;;;;;;-1.80;59.11;99171.41;10364815;28;20057;-86
2022/12/15 13:23:58;;;;;;;45.72;29.08;;;;;;;-2.07;59.76;99150.66;10362966;28;20068;-85
2022/12/15 13:29:00;;;;;;;43.75;28.67;;;;;;;-2.10;60.03;99134.47;10375247;28;20062;-85
2022/12/15 13:34:12;;;;;;;49.28;29.73;;;;;;;-1.96;59.72;99141.88;10354807;28;20055;-86
2022/12/15 13:39:17;;;;;;;49.78;29.48;;;;;;;-2.17;60.01;99128.66;10364473;28;20092;-86
2022/12/15 13:44:24;;;;;;;47.28;30.00;;;;;;;-2.10;60.29;99125.09;10374017;28;20435;-86
2022/12/15 13:49:42;;;;;;;47.50;30.73;;;;;;;-1.91;59.90;99105.03;10349865;28;20058;-86
2022/12/15 13:54:59;;;;;;;46.22;28.80;;;;;;;-2.10;59.85;99101.19;10360136;28;20137;-86
2022/12/15 14:00:17;;;;;;;47.20;29.30;;;;;;;-2.26;60.49;99100.69;10375800;28;20506;-85
2022/12/15 14:05:21;;;;;;;49.65;32.00;;;;;;;-2.41;60.58;99088.22;10373914;28;20058;-87
2022/12/15 14:10:29;;;;;;;45.75;28.77;;;;;;;-2.36;60.69;99088.09;10376197;28;20058;-86
2022/12/15 14:15:32;;;;;;;44.65;28.75;;;;;;;-2.58;60.68;99095.41;10377772;28;20502;-87
2022/12/15 14:20:39;;;;;;;48.72;29.83;;;;;;;-2.63;61.09;99081.03;10373334;28;20140;-88
2022/12/15 14:25:53;;;;;;;48.15;30.30;;;;;;;-2.44;61.58;99083.16;10354406;28;20218;-87
2022/12/15 14:30:59;;;;;;;45.33;29.08;;;;;;;-2.20;61.02;99092.88;10361464;28;20506;-85
2022/12/15 14:36:06;;;;;;;48.03;29.83;;;;;;;-2.09;60.81;99116.53;10376047;28;20086;-86
2022/12/15 14:41:39;;;;;;;48.85;29.58;;;;;;;-2.23;60.97;99117.72;10377063;28;20061;-86
2022/12/15 14:46:46;;;;;;;45.55;29.20;;;;;;;-2.40;61.40;99119.75;10376827;28;20057;-85
2022/12/15 14:51:51;;;;;;;47.90;29.52;;;;;;;-2.42;61.65;99117.25;10360608;28;20057;-85
2022/12/15 14:57:13;;;;;;;46.90;29.48;;;;;;;-2.45;61.82;99117.28;10359307;28;20053;-85
2022/12/15 15:02:28;;;;;;;45.42;29.02;;;;;;;-2.34;61.45;99133.28;10372990;28;20169;-85
2022/12/15 15:07:37;;;;;;;46.45;28.27;;;;;;;-2.45;61.55;99139.50;10358720;28;20049;-85
2022/12/15 15:12:52;;;;;;;44.17;27.60;;;;;;;-2.45;61.99;99142.91;10356613;28;20423;-85
2022/12/15 15:17:57;;;;;;;44.55;26.50;;;;;;;-2.55;61.79;99154.19;10354539;28;20570;-85
2022/12/15 15:23:03;;;;;;;43.38;26.38;;;;;;;-2.56;62.01;99162.75;10373618;28;20060;-84
2022/12/15 15:29:04;;;;;;;42.85;27.30;;;;;;;-2.70;62.24;99187.78;10375272;28;20772;-85
2022/12/15 15:34:27;;;;;;;42.17;27.33;;;;;;;-2.55;62.19;99194.31;10366185;28;20049;-87
2022/12/15 15:39:31;;;;;;;38.42;24.92;;;;;;;-2.42;62.01;99190.63;10358236;28;20054;-85
2022/12/15 15:44:36;;;;;;;42.55;25.85;;;;;;;-2.27;61.93;99180.97;10381803;28;20045;-86
2022/12/15 15:49:46;;;;;;;41.78;26.83;;;;;;;-2.24;61.68;99191.13;10379885;28;20641;-85
2022/12/15 15:54:50;;;;;;;50.08;31.42;;;;;;;-2.31;61.37;99191.28;10357328;28;20050;-86
2022/12/15 16:00:29;;;;;;;45.03;26.85;;;;;;;-2.55;61.39;99182.34;10362838;28;20066;-84
2022/12/15 16:05:46;;;;;;;42.30;27.23;;;;;;;-2.62;61.82;99187.63;10355915;28;20107;-86
2022/12/15 16:10:48;;;;;;;42.65;25.88;;;;;;;-2.62;61.80;99193.59;10359890;28;20161;-85
2022/12/15 16:15:50;;;;;;;44.85;27.55;;;;;;;-2.69;62.03;99189.44;10363726;28;20137;-85
2022/12/15 16:20:52;;;;;;;41.17;25.48;;;;;;;-2.70;62.08;99194.59;10369536;28;20075;-85
2022/12/15 16:25:57;;;;;;;43.33;27.75;;;;;;;-2.70;62.01;99194.59;10355036;28;20614;-85
2022/12/15 16:31:00;;;;;;;40.63;26.13;;;;;;;-2.76;62.29;99190.44;10363153;28;20061;-84
2022/12/15 16:36:10;;;;;;;68.00;43.17;;;;;;;-2.72;62.36;99179.28;10353244;28;20053;-86
2022/12/15 16:41:15;;;;;;;50.22;30.65;;;;;;;-2.67;62.56;99177.47;10373193;28;20102;-85
2022/12/15 16:46:17;;;;;;;47.70;29.42;;;;;;;-3.00;62.60;99173.78;10354360;28;20499;-84
2022/12/15 16:51:33;;;;;;;48.05;28.88;;;;;;;-3.13;62.96;99186.81;10357021;28;20065;-84
2022/12/15 16:56:35;;;;;;;46.55;28.23;;;;;;;-3.12;63.36;99193.66;10363144;28;20049;-85
2022/12/15 17:01:37;;;;;;;47.75;27.75;;;;;;;-3.03;63.10;99181.53;10357897;28;20395;-85
2022/12/15 17:06:41;;;;;;;50.25;29.15;;;;;;;-3.14;63.04;99196.22;10355119;28;20060;-85
2022/12/15 17:11:43;;;;;;;51.65;30.25;;;;;;;-3.19;63.27;99189.50;10365325;28;20643;-85
2022/12/15 17:16:44;;;;;;;51.78;30.25;;;;;;;-3.33;63.64;99206.78;10356490;28;20068;-84
2022/12/15 17:21:50;;;;;;;57.83;31.92;;;;;;;-3.32;63.89;99205.88;10355779;28;20762;-84
2022/12/15 17:26:52;;;;;;;62.60;32.88;;;;;;;-3.43;63.59;99213.75;10358670;28;20707;-85
2022/12/15 17:31:54;;;;;;;56.47;31.58;;;;;;;-3.28;63.89;99205.81;10362482;28;20087;-86
2022/12/15 17:37:03;;;;;;;57.90;32.97;;;;;;;-3.20;63.71;99200.59;10372522;28;20518;-87
2022/12/15 17:42:26;;;;;;;55.47;31.95;;;;;;;-3.11;64.11;99192.75;10366909;28;20091;-85
2022/12/15 17:47:30;;;;;;;60.75;33.25;;;;;;;-2.98;63.40;99176.34;10361728;28;20061;-83
2022/12/15 17:52:35;;;;;;;55.40;31.70;;;;;;;-2.98;63.67;99173.78;10368150;28;20058;-83
2022/12/15 17:57:36;;;;;;;62.35;34.47;;;;;;;-2.95;63.16;99171.16;10352442;28;20046;-83
2022/12/15 18:02:40;;;;;;;57.13;33.13;;;;;;;-2.91;63.45;99160.00;10372554;28;20060;-85
2022/12/15 18:07:44;;;;;;;56.13;32.53;;;;;;;-2.83;63.40;99169.22;10370128;28;20092;-84
2022/12/15 18:12:49;;;;;;;56.92;32.17;;;;;;;-2.91;63.35;99162.56;10363726;28;20375;-85
2022/12/15 18:17:52;;;;;;;59.20;33.92;;;;;;;-3.18;63.44;99145.97;10362981;28;20081;-84
2022/12/15 18:22:53;;;;;;;56.70;33.20;;;;;;;-2.93;63.77;99159.19;10359157;28;20054;-83
2022/12/15 18:27:59;;;;;;;57.45;33.60;;;;;;;-2.93;63.48;99164.31;10375156;28;20049;-83
2022/12/15 18:33:00;;;;;;;57.75;33.08;;;;;;;-2.90;63.52;99159.16;10356673;28;20056;-83
2022/12/15 18:38:15;;;;;;;61.90;34.08;;;;;;;-2.85;63.09;99165.88;10376365;28;20123;-83
2022/12/15 18:43:20;;;;;;;56.80;32.78;;;;;;;-2.82;63.47;99162.41;10377005;28;20064;-83
2022/12/15 18:48:30;;;;;;;56.08;32.42;;;;;;;-2.90;63.46;99164.28;10359182;28;20569;-83
2022/12/15 18:53:35;;;;;;;56.10;31.58;;;;;;;-2.93;63.51;99165.16;10363656;28;20073;-83
2022/12/15 18:58:38;;;;;;;58.10;32.65;;;;;;;-2.89;63.37;99173.63;10377797;28;20054;-83
2022/12/15 19:03:40;;;;;;;61.40;34.22;;;;;;;-2.87;63.51;99161.63;10377031;28;20093;-84
2022/12/15 19:08:41;;;;;;;57.75;32.35;;;;;;;-3.02;63.02;99167.88;10356336;28;20627;-84
2022/12/15 19:13:44;;;;;;;55.63;31.45;;;;;;;-3.10;63.34;99172.28;10376238;28;20068;-84
2022/12/15 19:24:13;;;;;;;68.85;36.28;;;;;;;-3.24;63.72;99171.66;10375410;28;20057;-83
2022/12/15 19:29:22;;;;;;;67.85;36.55;;;;;;;-3.26;64.20;99170.03;10354669;28;20057;-84
2022/12/15 19:34:24;;;;;;;60.80;33.97;;;;;;;-3.06;64.08;99163.66;10358679;28;20054;-83
2022/12/15 19:39:27;;;;;;;62.85;34.80;;;;;;;-3.09;64.17;99175.69;10377307;28;20498;-82
2022/12/15 19:44:29;;;;;;;67.35;34.53;;;;;;;-2.96;64.12;99179.72;10358751;28;20057;-83
2022/12/15 19:49:31;;;;;;;63.90;35.58;;;;;;;-2.92;64.19;99178.81;10373498;28;20057;-81
2022/12/15 19:54:34;;;;;;;66.60;35.08;;;;;;;-3.05;63.99;99180.72;10368658;28;20434;-83
2022/12/15 19:59:37;;;;;;;61.70;33.67;;;;;;;-3.00;64.16;99178.91;10375515;28;20071;-82
2022/12/15 20:04:40;;;;;;;72.32;37.60;;;;;;;-2.95;63.87;99181.41;10373620;28;20058;-82
2022/12/15 20:09:41;;;;;;;69.38;34.58;;;;;;;-3.05;63.88;99172.19;10376504;28;20061;-81
2022/12/15 20:14:46;;;;;;;59.53;32.05;;;;;;;-3.04;63.95;99166.22;10375349;28;20077;-82
2022/12/15 20:19:48;;;;;;;69.00;34.67;;;;;;;-3.00;63.96;99162.75;10377763;28;20096;-82
2022/12/15 20:24:50;;;;;;;59.55;32.25;;;;;;;-2.92;63.90;99154.03;10375081;28;20068;-82
2022/12/15 20:29:51;;;;;;;67.13;34.40;;;;;;;-2.89;63.66;99141.22;10359681;28;20097;-82
2022/12/15 20:34:53;;;;;;;68.35;35.33;;;;;;;-2.96;63.84;99138.78;10376972;28;20073;-82
2022/12/15 20:39:55;;;;;;;72.35;34.92;;;;;;;-3.08;63.80;99134.72;10354810;28;20066;-82
2022/12/15 20:44:58;;;;;;;71.20;36.45;;;;;;;-3.08;63.86;99134.72;10376725;28;20056;-87
2022/12/15 20:50:06;;;;;;;64.68;34.85;;;;;;;-2.96;63.82;99133.69;10369325;28;20115;-84
2022/12/15 20:55:12;;;;;;;63.63;33.55;;;;;;;-2.86;63.92;99130.09;10366209;28;20058;-84
2022/12/15 21:00:17;;;;;;;64.25;34.10;;;;;;;-2.80;63.72;99124.84;10358580;28;20053;-83
2022/12/15 21:05:22;;;;;;;73.05;36.90;;;;;;;-2.85;63.63;99135.16;10353868;28;20085;-84
2022/12/15 21:10:25;;;;;;;66.47;34.97;;;;;;;-2.88;63.71;99142.06;10352706;28;20093;-84
2022/12/15 21:15:27;;;;;;;65.07;33.92;;;;;;;-2.89;63.60;99145.47;10374260;28;20057;-84
2022/12/15 21:20:29;;;;;;;72.40;36.45;;;;;;;-2.85;63.56;99137.72;10373673;28;20065;-84
2022/12/15 21:25:30;;;;;;;70.60;36.00;;;;;;;-2.89;63.71;99137.78;10356248;28;20077;-84
2022/12/15 21:30:34;;;;;;;59.45;31.95;;;;;;;-2.97;63.77;99147.31;10353175;28;20068;-84
2022/12/15 21:35:38;;;;;;;67.00;34.22;;;;;;;-3.03;63.39;99143.19;10356472;28;20056;-84
2022/12/15 21:40:41;;;;;;;66.13;33.78;;;;;;;-3.19;63.41;99151.13;10355718;28;20059;-84
2022/12/15 21:45:42;;;;;;;69.57;33.63;;;;;;;-3.29;63.74;99157.28;10353104;28;20149;-84
2022/12/15 21:50:46;;;;;;;64.43;32.80;;;;;;;-3.33;63.65;99158.19;10348285;28;20061;-84
2022/12/15 21:55:48;;;;;;;66.70;33.35;;;;;;;-3.45;63.81;99158.41;10367492;28;20419;-83
2022/12/15 22:00:50;;;;;;;69.10;33.83;;;;;;;-3.40;63.70;99164.25;10353635;28;20523;-83
2022/12/15 22:05:52;;;;;;;64.38;32.25;;;;;;;-3.56;63.58;99161.09;10352761;28;20054;-83
2022/12/15 22:10:55;;;;;;;67.05;32.50;;;;;;;-3.60;63.76;99167.13;10355669;28;20053;-83
2022/12/15 22:15:57;;;;;;;65.82;31.20;;;;;;;-3.65;64.33;99161.28;10378169;28;20059;-83
2022/12/15 22:20:58;;;;;;;73.03;33.72;;;;;;;-3.53;63.89;99170.44;10363255;28;20115;-83
2022/12/15 22:26:00;;;;;;;68.07;33.88;;;;;;;-3.67;64.16;99174.03;10377791;28;20056;-83
2022/12/15 22:31:03;;;;;;;65.82;31.55;;;;;;;-3.61;64.33;99170.56;10381283;28;20057;-83
2022/12/15 22:36:05;;;;;;;75.18;34.47;;;;;;;-3.60;64.34;99179.06;10378296;28;20597;-84
2022/12/15 22:41:17;;;;;;;72.28;34.10;;;;;;;-3.54;64.73;99178.97;10359648;28;20150;-83
2022/12/15 22:46:22;;;;;;;66.63;32.35;;;;;;;-3.54;64.48;99184.06;10376251;28;20056;-84
2022/12/15 22:51:24;;;;;;;68.43;32.40;;;;;;;-3.42;64.42;99192.41;10357991;28;20053;-83
2022/12/15 22:56:33;;;;;;;68.30;32.85;;;;;;;-3.35;64.23;99188.91;10368473;28;20060;-83
2022/12/15 23:01:35;;;;;;;65.78;31.23;;;;;;;-3.33;64.09;99191.44;10382088;28;20097;-83
2022/12/15 23:06:37;;;;;;;76.78;32.58;;;;;;;-3.47;64.25;99190.81;10378769;28;20096;-84
2022/12/15 23:11:40;;;;;;;70.75;34.22;;;;;;;-3.49;64.22;99193.38;10357225;28;20054;-84
2022/12/15 23:16:44;;;;;;;74.57;31.63;;;;;;;-3.51;64.28;99194.28;10378659;28;20155;-84
2022/12/15 23:21:46;;;;;;;65.43;28.15;;;;;;;-3.78;64.55;99198.91;10378005;28;20144;-84
2022/12/15 23:26:48;;;;;;;62.38;29.45;;;;;;;-3.81;64.69;99201.50;10376756;28;20565;-83
2022/12/15 23:31:49;;;;;;;63.85;29.83;;;;;;;-3.75;64.61;99201.41;10362252;28;20056;-84
2022/12/15 23:36:51;;;;;;;58.60;27.77;;;;;;;-3.75;64.71;99206.53;10377271;28;20057;-82
2022/12/15 23:41:53;;;;;;;57.25;26.27;;;;;;;-3.63;64.52;99212.34;10371658;28;20073;-84
2022/12/15 23:46:56;;;;;;;80.45;29.55;;;;;;;-3.60;64.20;99208.03;10359820;28;20054;-84
2022/12/15 23:51:58;;;;;;;63.38;29.52;;;;;;;-3.68;64.52;99202.19;10359234;28;20396;-84
2022/12/15 23:57:01;;;;;;;64.68;29.25;;;;;;;-3.77;64.45;99202.28;10369864;28;20064;-83
